Latest Weather Observations for Spitfire Channel

IDQ60801

Issued at 11:35 pm EST Tuesday 2 September 2014 (issued every 30 minutes, with the page automatically refreshed every 10 minutes)

About weather observations | Map of weather stations | Latest weather observations for QLD | Other Formats
Station Details ID: 040927 Name: SPITFIRE CHANNEL BEACON Lat: -27.05 Lon: 153.27 Height: 7.0 m
Data from the previous 72 hours. | See also: Recent months for locations in Queensland
Date/Time
EST
Temp
°C
App
Temp
°C
Dew
Point
Rel
Hum
%
Delta-T
°C
Wind Press
QNH
hPa
Press
MSL
hPa
Rain
since 9 am
mm
Dir
 
Spd
km/h
Gust
km/h
Spd
kts
Gust
kts
02/11:30pm - - - - - SW 43 52 23 28 - - -
02/11:00pm - - - - - SW 39 50 21 27 - - -
02/10:57pm - - - - - SW 33 50 18 27 - - -
02/10:30pm - - - - - SW 26 32 14 17 - - -
02/10:00pm - - - - - SW 33 41 18 22 - - -
02/09:30pm - - - - - SW 43 54 23 29 - - -
02/09:00pm - - - - - SW 50 65 27 35 - - -
02/08:30pm - - - - - SW 44 63 24 34 - - -
02/08:00pm - - - - - WSW 37 46 20 25 - - -
02/07:30pm - - - - - SW 35 44 19 24 - - -
02/07:00pm - - - - - SW 26 32 14 17 - - -
02/06:30pm - - - - - SW 30 39 16 21 - - -
02/06:00pm - - - - - SW 26 33 14 18 - - -
02/05:30pm - - - - - W 15 19 8 10 - - -
02/05:07pm - - - - - NW 32 50 17 27 - - -
02/05:00pm - - - - - NNW 37 48 20 26 - - -
02/04:30pm - - - - - N 37 48 20 26 - - -
02/04:00pm - - - - - N 43 50 23 27 - - -
02/03:30pm - - - - - N 39 46 21 25 - - -
02/03:00pm - - - - - N 35 41 19 22 - - -
02/02:30pm - - - - - N 33 41 18 22 - - -
02/02:00pm - - - - - N 30 33 16 18 - - -
02/01:30pm - - - - - NNW 26 35 14 19 - - -
02/01:00pm - - - - - NNW 26 28 14 15 - - -
02/12:30pm - - - - - NNW 22 26 12 14 - - -
02/12:00pm - - - - - NNW 24 28 13 15 - - -
02/11:30am - - - - - NNW 20 22 11 12 - - -
02/11:00am - - - - - NNW 30 35 16 19 - - -
02/10:30am - - - - - NNW 22 26 12 14 - - -
02/10:00am - - - - - NNW 30 35 16 19 - - -
02/09:30am - - - - - NNW 26 33 14 18 - - -
02/09:00am - - - - - NW 28 33 15 18 - - -
02/08:30am - - - - - NNW 30 37 16 20 - - -
02/08:00am - - - - - NW 32 37 17 20 - - -
02/07:30am - - - - - NW 28 32 15 17 - - -
02/07:00am - - - - - NNW 30 35 16 19 - - -
02/06:30am - - - - - NNW 28 33 15 18 - - -
02/06:00am - - - - - NW 26 32 14 17 - - -
02/05:30am - - - - - NW 28 32 15 17 - - -
02/05:00am - - - - - NW 30 35 16 19 - - -
02/04:30am - - - - - NW 28 35 15 19 - - -
02/04:00am - - - - - NW 32 44 17 24 - - -
02/03:30am - - - - - NW 30 35 16 19 - - -
02/03:00am - - - - - NW 39 48 21 26 - - -
02/02:30am - - - - - NW 33 39 18 21 - - -
02/02:00am - - - - - NW 30 35 16 19 - - -
02/01:30am - - - - - NW 32 39 17 21 - - -
02/01:00am - - - - - NW 33 41 18 22 - - -
02/12:30am - - - - - NW 30 35 16 19 - - -
02/12:00am - - - - - NW 30 35 16 19 - - -
 
Date/Time
EST
Temp
°C
App
Temp
°C
Dew
Point
Rel
Hum
%
Delta-T
°C
Wind Press
QNH
hPa
Press
MSL
hPa
Rain
since 9 am
mm
Dir
 
Spd
km/h
Gust
km/h
Spd
kts
Gust
kts
01/11:30pm - - - - - NW 28 35 15 19 - - -
01/11:00pm - - - - - NNW 35 41 19 22 - - -
01/10:30pm - - - - - NNW 37 44 20 24 - - -
01/10:00pm - - - - - NNW 33 41 18 22 - - -
01/09:30pm - - - - - NNW 32 35 17 19 - - -
01/09:00pm - - - - - NNW 39 46 21 25 - - -
01/08:30pm - - - - - NNW 37 44 20 24 - - -
01/08:00pm - - - - - N 33 44 18 24 - - -
01/07:30pm - - - - - N 35 43 19 23 - - -
01/07:00pm - - - - - N 33 39 18 21 - - -
01/06:30pm - - - - - N 33 43 18 23 - - -
01/06:00pm - - - - - N 28 33 15 18 - - -
01/05:30pm - - - - - N 28 35 15 19 - - -
01/05:00pm - - - - - N 26 30 14 16 - - -
01/04:30pm - - - - - N 28 33 15 18 - - -
01/04:00pm - - - - - N 26 32 14 17 - - -
01/03:30pm - - - - - N 24 28 13 15 - - -
01/03:00pm - - - - - N 22 26 12 14 - - -
01/02:30pm - - - - - N 22 26 12 14 - - -
01/02:00pm - - - - - N 22 24 12 13 - - -
01/01:30pm - - - - - N 19 20 10 11 - - -
01/01:00pm - - - - - N 17 19 9 10 - - -
01/12:30pm - - - - - N 15 17 8 9 - - -
01/12:00pm - - - - - N 15 17 8 9 - - -
01/11:30am - - - - - NNE 11 13 6 7 - - -
01/11:00am - - - - - NNE 7 9 4 5 - - -
01/10:30am - - - - - E 6 7 3 4 - - -
01/10:00am - - - - - SE 2 4 1 2 - - -
01/09:30am - - - - - CALM 0 4 0 2 - - -
01/09:00am - - - - - SSE 4 6 2 3 - - -
01/08:30am - - - - - SSE 4 4 2 2 - - -
01/08:00am - - - - - SSE 4 6 2 3 - - -
01/07:30am - - - - - SSE 4 6 2 3 - - -
01/07:00am - - - - - SE 4 6 2 3 - - -
01/06:30am - - - - - SSW 6 6 3 3 - - -
01/06:00am - - - - - SSW 6 6 3 3 - - -
01/05:30am - - - - - SSE 7 9 4 5 - - -
01/05:00am - - - - - S 7 9 4 5 - - -
01/04:30am - - - - - S 9 9 5 5 - - -
01/04:00am - - - - - S 9 13 5 7 - - -
01/03:30am - - - - - S 9 11 5 6 - - -
01/03:00am - - - - - SSW 11 13 6 7 - - -
01/02:30am - - - - - SW 7 9 4 5 - - -
01/02:00am - - - - - WSW 7 9 4 5 - - -
01/01:30am - - - - - SW 7 9 4 5 - - -
01/01:00am - - - - - SW 9 11 5 6 - - -
01/12:30am - - - - - W 9 11 5 6 - - -
01/12:00am - - - - - WSW 7 9 4 5 - - -
 
Date/Time
EST
Temp
°C
App
Temp
°C
Dew
Point
Rel
Hum
%
Delta-T
°C
Wind Press
QNH
hPa
Press
MSL
hPa
Rain
since 9 am
mm
Dir
 
Spd
km/h
Gust
km/h
Spd
kts
Gust
kts
31/11:30pm - - - - - SSW 7 9 4 5 - - -
31/11:00pm - - - - - SW 6 7 3 4 - - -
31/10:30pm - - - - - WSW 6 6 3 3 - - -
31/10:00pm - - - - - W 6 7 3 4 - - -
31/09:30pm - - - - - W 4 4 2 2 - - -
31/09:00pm - - - - - N 2 6 1 3 - - -
31/08:30pm - - - - - CALM 0 0 0 0 - - -
31/08:00pm - - - - - CALM 0 0 0 0 - - -
31/07:30pm - - - - - E 2 4 1 2 - - -
31/07:00pm - - - - - E 6 7 3 4 - - -
31/06:30pm - - - - - E 9 11 5 6 - - -
31/06:00pm - - - - - ENE 9 13 5 7 - - -
31/05:30pm - - - - - ENE 15 17 8 9 - - -
31/05:00pm - - - - - ENE 19 20 10 11 - - -
31/04:30pm - - - - - NE 19 20 10 11 - - -
31/04:00pm - - - - - NE 19 20 10 11 - - -
31/03:30pm - - - - - NNE 19 22 10 12 - - -
31/03:00pm - - - - - NE 19 20 10 11 - - -
31/02:30pm - - - - - NNE 15 17 8 9 - - -
31/02:00pm - - - - - NE 9 11 5 6 - - -
31/01:30pm - - - - - E 6 7 3 4 - - -
31/01:00pm - - - - - SE 6 7 3 4 - - -
31/12:30pm - - - - - SE 6 7 3 4 - - -
31/12:00pm - - - - - SSE 7 9 4 5 - - -
31/11:30am - - - - - SSE 7 7 4 4 - - -
31/11:00am - - - - - SSE 9 11 5 6 - - -
31/10:30am - - - - - SSE 9 9 5 5 - - -
31/10:00am - - - - - SSE 9 11 5 6 - - -
31/09:30am - - - - - SSE 7 9 4 5 - - -
31/09:00am - - - - - S 9 11 5 6 - - -
31/08:30am - - - - - S 11 13 6 7 - - -
31/08:00am - - - - - SSE 11 15 6 8 - - -
31/07:30am - - - - - SSE 13 15 7 8 - - -
31/07:00am - - - - - SSE 13 17 7 9 - - -
31/06:30am - - - - - S 9 9 5 5 - - -
31/06:00am - - - - - SSW 7 9 4 5 - - -
31/05:30am - - - - - SW 11 13 6 7 - - -
31/05:00am - - - - - SW 11 13 6 7 - - -
31/04:30am - - - - - SW 13 15 7 8 - - -
31/04:00am - - - - - WSW 13 15 7 8 - - -
31/03:30am - - - - - SW 9 11 5 6 - - -
31/03:00am - - - - - WSW 9 11 5 6 - - -
31/02:30am - - - - - SW 11 13 6 7 - - -
31/02:00am - - - - - SW 9 11 5 6 - - -
31/01:30am - - - - - WSW 11 13 6 7 - - -
31/01:00am - - - - - WSW 13 15 7 8 - - -
31/12:30am - - - - - WSW 13 15 7 8 - - -
31/12:00am - - - - - WSW 13 15 7 8 - - -

Other Formats:

Comma delimited format used in spreadsheet applications
http://www.bom.gov.au/fwo/IDQ60801/IDQ60801.94581.axf

JavaScript Object Notation format (JSON) in row-major order
http://www.bom.gov.au/fwo/IDQ60801/IDQ60801.94581.json